• Join FlightAware (Why Join?)
  • Login
  • US Flag 
10:26PM EDT


 

Airport Tracker/Info


-or-


 

Live Flight TrackerFlight Track Log ✈ NKS331 ✈ 07-May-2013 ✈ KLGA - KORD

Flight Track Log - Related Links

Times and Time Zones

All times are in EDT time to prevent confusion due to time zone crossing. See the NKS331 flight status page for this flight to view local times or setup timezone preferences in your user account.

Time Position Orientation Groundspeed Altitude Reporting Facility
EDT Latitude Longitude Course Direction KTS MPH feet Rate Location/Type
11:17PM 40.7580 -73.8460 310° West 156 180 1,300  Level FlightAware
11:18PM 40.7380 -73.8680 220° Southwest 224 258 2,100 1,500 Climbing FlightAware
11:18PM 40.7370 -73.8800 264° West 238 274 2,300 1,980 Climbing FlightAware
11:18PM 40.7420 -73.9150 281° West 272 313 3,100 2,400 Climbing FlightAware
11:19PM 40.7510 -73.9330 303° West 284 327 3,700 3,600 Climbing FlightAware
11:19PM 40.7571 -73.9436 307° West 285 328 4,300 4,200 Climbing FlightAware ADS-B
11:19PM 40.7756 -73.9751 308° West 294 338 5,600 3,300 Climbing FlightAware ADS-B
11:19PM 40.7792 -73.9817 306° West 294 338 5,800 3,000 Climbing FlightAware ADS-B
11:19PM 40.7848 -73.9923 305° West 295 339 6,200 3,960 Climbing FlightAware ADS-B
11:19PM 40.7907 -74.0039 304° West 295 339 6,800 3,960 Climbing FlightAware ADS-B
11:19PM 40.7959 -74.0143 303° West 296 341 7,200 3,360 Climbing FlightAware ADS-B
11:20PM 40.8027 -74.0282 303° West 297 342 7,700 3,180 Climbing FlightAware ADS-B
11:20PM 40.8065 -74.0361 302° West 300 345 8,000 3,000 Climbing FlightAware ADS-B
11:20PM 40.8149 -74.0533 303° West 306 352 8,500 3,360 Climbing FlightAware ADS-B
11:20PM 40.8187 -74.0613 302° West 307 353 8,900 3,180 Climbing FlightAware ADS-B
11:20PM 40.8263 -74.0767 303° West 305 351 9,300 2,400 Climbing FlightAware ADS-B
11:20PM 40.8312 -74.0866 303° West 304 350 9,500 2,580 Climbing FlightAware ADS-B
11:20PM 40.8386 -74.1015 303° West 302 348 10,000 1,860 Climbing FlightAware ADS-B
11:21PM 40.8564 -74.1371 303° West 327 376 10,500 1,260 Climbing FlightAware ADS-B
11:21PM 40.8642 -74.1525 304° West 341 392 10,700 1,320 Climbing FlightAware ADS-B
11:21PM 40.8891 -74.2019 304° West 366 421 11,300 1,560 Climbing FlightAware ADS-B
11:21PM 40.8929 -74.2094 304° West 370 426 11,500 3,180 Climbing FlightAware ADS-B
11:22PM 40.9197 -74.2623 304° West 372 428 13,000 3,000 Climbing FlightAware ADS-B
11:22PM 40.9215 -74.2659 303° West 374 430 13,000 2,340 Level FlightAware ADS-B
11:22PM 40.9522 -74.3269 304° West 385 443 14,300 2,400 Climbing FlightAware ADS-B
11:23PM 40.9581 -74.3385 304° West 383 441 14,500 2,280 Climbing FlightAware ADS-B
11:23PM 40.9832 -74.3885 304° West 392 451 15,500 2,160 Climbing FlightAware ADS-B
11:23PM 40.9876 -74.3973 304° West 395 455 15,600 540 Climbing FlightAware ADS-B
11:23PM 41.0140 -74.4501 304° West 396 456 15,800 360 Climbing FlightAware ADS-B
11:24PM 41.0192 -74.4606 303° West 396 456 15,800  Level FlightAware ADS-B
11:24PM 41.0439 -74.5098 304° West 397 457 15,800  Level FlightAware ADS-B
11:24PM 41.0508 -74.5236 304° West 397 457 15,800 960 Level FlightAware ADS-B
11:24PM 41.0752 -74.5726 303° West 399 459 16,300 1,680 Climbing FlightAware ADS-B
11:25PM 41.1072 -74.6366 304° West 409 471 17,400 2,040 Climbing FlightAware ADS-B
11:25PM 41.1354 -74.6931 304° West 417 480 18,300 2,400 Climbing FlightAware ADS-B
11:26PM 41.1656 -74.7620 300° West 417 480 19,700 2,400 Climbing FlightAware ADS-B
11:26PM 41.1946 -74.8287 300° West 420 483 20,800 1,920 Climbing FlightAware ADS-B
11:27PM 41.2244 -74.8972 300° West 427 491 21,700 1,860 Climbing FlightAware ADS-B
11:27PM 41.2544 -74.9664 300° West 431 496 22,700 1,440 Climbing FlightAware ADS-B
11:28PM 41.2849 -75.0368 300° West 446 513 23,200 1,140 Climbing FlightAware ADS-B
11:28PM 41.3163 -75.1096 300° West 455 524 23,900 1,620 Climbing FlightAware ADS-B
11:29PM 41.3491 -75.1857 300° West 457 526 24,900 1,620 Climbing FlightAware ADS-B
11:30PM 41.3821 -75.2625 300° West 463 533 25,600 1,440 Climbing FlightAware ADS-B
11:30PM 41.4151 -75.3395 300° West 468 539 26,400 1,440 Climbing FlightAware ADS-B
11:31PM 41.4473 -75.4150 300° West 472 543 27,100 1,500 Climbing FlightAware ADS-B
11:31PM 41.4650 -75.4577 299° West 473 544 27,600 1,560 Climbing FlightAware ADS-B
11:31PM 41.4811 -75.5026 296° West 474 545 28,000 1,260 Climbing FlightAware ADS-B
11:32PM 41.5058 -75.5859 292° West 480 552 28,600 1,140 Climbing FlightAware ADS-B
11:32PM 41.5294 -75.6683 291° West 485 558 29,200 1,080 Climbing FlightAware ADS-B
11:33PM 41.5542 -75.7551 291° West 491 565 29,700 1,200 Climbing FlightAware ADS-B
11:33PM 41.5788 -75.8412 291° West 493 567 30,400 1,320 Climbing FlightAware ADS-B
11:34PM 41.6032 -75.9272 291° West 493 567 31,100 1,320 Climbing FlightAware ADS-B
11:34PM 41.6278 -76.0143 291° West 491 565 31,800 1,500 Climbing FlightAware ADS-B
11:35PM 41.6516 -76.0982 291° West 489 563 32,600 1,620 Climbing FlightAware ADS-B
11:35PM 41.6756 -76.1835 291° West 481 554 33,500 1,440 Climbing FlightAware ADS-B
11:36PM 41.6991 -76.2672 291° West 479 551 34,100 1,200 Climbing FlightAware ADS-B
11:36PM 41.7227 -76.3516 291° West 480 552 34,700 1,140 Climbing FlightAware ADS-B
11:37PM 41.7459 -76.4353 290° West 480 552 35,300 1,020 Climbing FlightAware ADS-B
11:37PM 41.7711 -76.5260 290° West 478 550 35,800 600 Climbing FlightAware ADS-B
11:38PM 41.7978 -76.6231 290° West 476 548 36,000 120 Climbing FlightAware ADS-B
11:39PM 41.8300 -76.7400 290° West 480 552 36,000  Level FlightAware
11:39PM 41.8507 -76.8149 290° West 482 555 36,000  Level FlightAware ADS-B
11:40PM 41.8950 -76.9780 290° West 478 550 36,000  Level FlightAware
11:41PM 41.9220 -77.0780 290° West 477 549 36,000  Level FlightAware
11:41PM 41.9560 -77.2020 290° West 476 548 36,000  Level FlightAware
11:42PM 41.9850 -77.3090 290° West 477 549 36,000  Level FlightAware
11:43PM 42.0190 -77.4390 289° West 477 549 36,000  Level FlightAware
11:43PM 42.0490 -77.5500 290° West 478 550 36,000  Level FlightAware
11:44PM 42.0790 -77.6630 290° West 481 554 36,000  Level FlightAware
11:45PM 42.1110 -77.7840 290° West 482 555 36,000  Level FlightAware
11:46PM 42.1420 -77.9010 290° West 482 555 36,000 60 Level FlightAware
11:46PM 42.1750 -78.0280 289° West 481 554 36,100  Climbing FlightAware
11:47PM 42.2040 -78.1400 289° West 477 549 36,000 -120 Descending FlightAware
11:48PM 42.2330 -78.2520 289° West 475 547 36,000  Level FlightAware
11:48PM 42.2650 -78.3770 289° West 475 547 36,000  Level FlightAware
11:49PM 42.2930 -78.4870 289° West 474 545 36,000  Level FlightAware
11:50PM 42.3250 -78.6110 289° West 473 544 36,000  Level FlightAware
11:50PM 42.3530 -78.7240 289° West 473 544 36,000  Level FlightAware
11:51PM 42.3860 -78.8520 289° West 474 545 36,000  Level FlightAware
11:52PM 42.4140 -78.9640 289° West 474 545 36,000  Level FlightAware
11:53PM 42.4420 -79.0760 289° West 473 544 36,000  Level FlightAware
11:53PM 42.4720 -79.1980 288° West 472 543 36,000  Level FlightAware
11:54PM 42.4910 -79.3150 282° West 472 543 36,000  Level FlightAware
11:55PM 42.4990 -79.4460 275° West 473 544 36,000  Level FlightAware
11:55PM 42.5040 -79.5490 274° West 473 544 36,000  Level FlightAware
11:56PM 42.5110 -79.6840 274° West 473 544 36,000  Level FlightAware
11:57PM 42.5170 -79.8130 274° West 474 545 36,000  Level FlightAware
11:57PM 42.5220 -79.9340 273° West 473 544 36,000  Level FlightAware
11:58PM 42.5280 -80.0670 274° West 473 544 36,000  Level FlightAware
11:59PM 42.5330 -80.1860 273° West 473 544 36,000  Level FlightAware
12:00AM 42.5390 -80.3060 274° West 474 545 36,000  Level FlightAware
12:00AM 42.5430 -80.4260 273° West 474 545 36,000  Level FlightAware
12:01AM 42.5470 -80.5280 273° West 473 544 36,000  Level FlightAware
12:01AM 42.5520 -80.6440 273° West 473 544 36,000  Level FlightAware
12:02AM 42.5560 -80.7610 273° West 473 544 36,000  Level FlightAware
12:03AM 42.5610 -80.8980 273° West 472 543 36,000  Level FlightAware
12:04AM 42.5660 -81.0150 273° West 472 543 36,000  Level FlightAware
12:04AM 42.5700 -81.1320 273° West 473 544 36,000  Level FlightAware
12:05AM 42.5740 -81.2650 272° West 474 545 36,000  Level FlightAware
12:06AM 42.5780 -81.3750 273° West 474 545 36,000  Level FlightAware
12:06AM 42.5690 -81.5160 265° West 475 547 36,000  Level FlightAware
12:07AM 42.5620 -81.6320 265° West 474 545 36,000  Level FlightAware
12:08AM 42.5560 -81.7270 265° West 474 545 36,000  Level FlightAware
12:09AM 42.5420 -81.9370 265° West 475 547 36,000  Level FlightAware
12:09AM 42.5340 -82.0700 265° West 475 547 36,000  Level FlightAware
12:10AM 42.5250 -82.1920 264° West 475 547 36,000  Level FlightAware
12:11AM 42.5180 -82.3040 265° West 475 547 36,000  Level FlightAware
12:11AM 42.5080 -82.4360 264° West 474 545 36,000  Level FlightAware
12:12AM 42.4980 -82.5780 265° West 474 545 36,000  Level FlightAware
12:13AM 42.4900 -82.6890 264° West 474 545 36,000  Level FlightAware
12:14AM 42.4850 -82.7680 265° West 473 544 36,000  Level FlightAware
12:14AM 42.4740 -82.9060 264° West 472 543 36,000  Level FlightAware
12:15AM 42.4670 -83.0030 264° West 472 543 36,000  Level FlightAware
12:16AM 42.4530 -83.1780 264° West 471 542 36,000  Level FlightAware
12:16AM 42.4430 -83.3070 264° West 470 541 36,000  Level FlightAware
12:17AM 42.4340 -83.4230 264° West 470 541 36,000  Level FlightAware
12:18AM 42.4230 -83.5580 264° West 469 540 36,000  Level FlightAware
12:18AM 42.4140 -83.6760 264° West 469 540 36,000  Level FlightAware
12:19AM 42.4040 -83.7920 263° West 469 540 36,000  Level FlightAware
12:20AM 42.3940 -83.9180 264° West 468 539 36,000  Level FlightAware
12:21AM 42.3840 -84.0360 263° West 467 537 36,000  Level FlightAware
12:21AM 42.3730 -84.1680 264° West 468 539 36,000  Level FlightAware
12:22AM 42.3630 -84.2820 263° West 468 539 36,000  Level FlightAware
12:23AM 42.3510 -84.4120 263° West 467 537 36,000  Level FlightAware
12:23AM 42.3420 -84.5120 263° West 466 536 36,000  Level FlightAware
12:24AM 42.3320 -84.6310 264° West 465 535 36,000  Level FlightAware
12:25AM 42.3190 -84.7750 263° West 464 534 36,000  Level FlightAware
12:25AM 42.3080 -84.8870 262° West 464 534 36,000  Level FlightAware
12:26AM 42.2980 -85.0030 263° West 463 533 36,000  Level FlightAware
12:27AM 42.2860 -85.1280 263° West 461 531 36,000  Level FlightAware
12:28AM 42.2750 -85.2440 263° West 458 527 36,000  Level FlightAware
12:28AM 42.2650 -85.3420 262° West 456 525 36,000  Level FlightAware
12:29AM 42.2520 -85.4770 263° West 455 524 36,000 -120 Level FlightAware
12:30AM 42.2410 -85.5920 263° West 456 525 35,900 -1,680 Descending FlightAware
12:30AM 42.2280 -85.7180 262° West 469 540 33,700 -3,000 Descending FlightAware
12:31AM 42.2160 -85.8390 262° West 467 537 31,700 -2,880 Descending FlightAware
12:32AM 42.2030 -85.9720 263° West 463 533 29,700 -2,580 Descending FlightAware
12:32AM 42.1910 -86.0790 261° West 458 527 28,100 -2,520 Descending FlightAware
12:33AM 42.1790 -86.1980 262° West 452 520 26,400 -2,400 Descending FlightAware
12:34AM 42.1670 -86.3130 262° West 447 514 24,700 -2,520 Descending FlightAware
12:35AM 42.1550 -86.4260 262° West 435 501 22,900 -2,640 Descending FlightAware
12:35AM 42.1420 -86.5490 262° West 419 482 21,000 -2,400 Descending FlightAware
12:36AM 42.1310 -86.6470 261° West 406 467 19,500 -2,340 Descending FlightAware
12:37AM 42.1200 -86.7520 262° West 396 456 17,700 -2,400 Descending FlightAware
12:37AM 42.1080 -86.8540 261° West 385 443 16,100 -2,280 Descending FlightAware
12:38AM 42.0980 -86.9360 261° West 374 430 14,900 -2,160 Descending FlightAware
12:39AM 42.0760 -87.0440 255° West 360 414 13,100 -2,100 Descending FlightAware
12:39AM 42.0600 -87.1290 256° West 350 403 11,800 -2,040 Descending FlightAware
12:40AM 42.0530 -87.2170 264° West 345 397 10,400 -1,680 Descending FlightAware
12:41AM 42.0510 -87.2770 267° West 337 388 9,900 -720 Descending FlightAware
12:41AM 42.0500 -87.3110 268° West 339 390 9,900  Level FlightAware
12:41AM 42.0480 -87.3720 267° West 339 390 9,900  Level FlightAware
12:42AM 42.0470 -87.4250 269° West 337 388 9,900  Level FlightAware
12:42AM 42.0450 -87.4790 267° West 339 390 9,900  Level FlightAware
12:43AM 42.0440 -87.5400 269° West 341 392 9,900  Level FlightAware
12:43AM 42.0410 -87.6070 267° West 339 390 9,900  Level FlightAware
12:44AM 42.0390 -87.6580 267° West 338 389 9,900  Level FlightAware
12:44AM 42.0360 -87.7160 266° West 301 346 9,900 -540 Level FlightAware
12:45AM 42.0330 -87.7700 266° West 288 331 9,400 -1,320 Descending FlightAware
12:45AM 42.0300 -87.8140 265° West 288 331 8,700 -1,560 Descending FlightAware
12:46AM 42.0330 -87.8640 275° West 286 329 8,000 -1,440 Descending FlightAware
12:46AM 42.0360 -87.9090 275° West 282 325 7,400 -1,440 Descending FlightAware
12:46AM 42.0390 -87.9610 274° West 273 314 6,700 -1,500 Descending FlightAware
12:47AM 42.0430 -88.0120 276° West 272 313 5,900 -1,680 Descending FlightAware
12:47AM 42.0460 -88.0570 275° West 267 307 5,200 -1,680 Descending FlightAware
12:48AM 42.0490 -88.1020 275° West 256 295 4,400 -1,380 Descending FlightAware
12:48AM 42.0500 -88.1240 274° West 244 281 4,200 -840 Descending FlightAware
12:48AM 42.0510 -88.1460 274° West 240 276 4,000 -480 Descending FlightAware
12:49AM 42.0400 -88.1790 246° West 234 269 3,900 -180 Descending FlightAware
12:49AM 42.0230 -88.1880 201° Southwest 231 266 3,900  Level FlightAware
12:50AM 41.9940 -88.1780 166° South 223 257 3,900  Level FlightAware
12:50AM 41.9880 -88.1690 132° Southeast 211 243 3,900  Level FlightAware
12:50AM 41.9730 -88.1360 121° Southeast 194 223 3,900 -540 Level FlightAware
12:50AM 41.9700 -88.1200 104° East 190 219 3,500 -1,620 Descending FlightAware
12:51AM 41.9690 -88.1020 94° East 181 208 3,100 -1,200 Descending FlightAware
12:51AM 41.9690 -88.0760 90° East 173 199 2,700 -900 Descending FlightAware
12:52AM 41.9690 -88.0290 90° East 165 190 2,100 -900 Descending FlightAware
12:52AM 41.9690 -88.0170 90° East 152 175 1,900 -900 Descending FlightAware
12:52AM 41.9690 -87.9980 90° East 134 154 1,600 -720 Descending FlightAware
12:53AM 41.9690 -87.9680 90° East 127 146 1,200 -720 Descending FlightAware
12:53AM 41.9690 -87.9570 90° East 125 144 1,000 -780 Descending FlightAware
12:54AM 41.9690 -87.9240 90° East 132 152 500 -780 Descending FlightAware